Time;durP1;ratioP1;P1;durP2;ratioP2;P2;SDS_P1;SDS_P2;PMS_P1;PMS_P2;Temp;Humidity;BMP_temperature;BMP_pressure;BME280_temperature;BME280_humidity;BME280_pressure;Samples;Min_cycle;Max_cycle;Signal;HPM_P1;HPM_P2
2023/12/03 00:00:59;;;;;;;19.48;11.63;;;;;;;;;;2092669;28;20029;-54
2023/12/03 00:01:59;;;;;;;20.40;11.45;;;;;;;;;;2090355;28;20048;-54
2023/12/03 00:03:01;;;;;;;19.05;10.75;;;;;;;;;;2089949;28;20500;-54
2023/12/03 00:04:02;;;;;;;21.13;12.45;;;;;;;;;;2089737;28;20032;-54
2023/12/03 00:05:03;;;;;;;19.75;12.25;;;;;;;;;;2097762;28;20115;-54
2023/12/03 00:06:04;;;;;;;24.00;12.45;;;;;;;;;;2097819;28;20036;-54
2023/12/03 00:07:05;;;;;;;20.52;12.15;;;;;;;;;;2081692;28;20155;-54
2023/12/03 00:08:06;;;;;;;35.10;14.18;;;;;;;;;;2089504;28;20037;-55
2023/12/03 00:09:07;;;;;;;44.97;14.25;;;;;;;;;;2090032;28;20431;-54
2023/12/03 00:10:07;;;;;;;22.20;13.18;;;;;;;;;;2090109;28;20048;-55
2023/12/03 00:11:08;;;;;;;20.52;11.38;;;;;;;;;;2090367;28;20040;-54
2023/12/03 00:12:09;;;;;;;23.65;12.52;;;;;;;;;;2090032;28;20103;-54
2023/12/03 00:13:09;;;;;;;23.73;13.90;;;;;;;;;;2090068;28;20065;-54
2023/12/03 00:14:10;;;;;;;21.48;12.38;;;;;;;;;;2090230;28;20057;-54
2023/12/03 00:15:11;;;;;;;22.40;11.55;;;;;;;;;;2089771;28;20052;-54
2023/12/03 00:16:12;;;;;;;21.42;12.95;;;;;;;;;;2090020;28;20033;-54
2023/12/03 00:17:12;;;;;;;20.00;12.00;;;;;;;;;;2090170;28;20094;-54
2023/12/03 00:18:13;;;;;;;20.08;11.48;;;;;;;;;;2089748;28;20045;-54
2023/12/03 00:19:14;;;;;;;25.00;12.30;;;;;;;;;;2089812;28;20108;-54
2023/12/03 00:20:15;;;;;;;21.58;12.25;;;;;;;;;;2090090;28;20041;-53
2023/12/03 00:21:15;;;;;;;21.08;12.10;;;;;;;;;;2090069;28;20442;-54
2023/12/03 00:22:16;;;;;;;22.00;11.68;;;;;;;;;;2089112;28;20111;-54
2023/12/03 00:23:17;;;;;;;20.30;11.75;;;;;;;;;;2089522;28;20390;-54
2023/12/03 00:24:18;;;;;;;19.00;10.95;;;;;;;;;;2090191;28;20477;-54
2023/12/03 00:25:18;;;;;;;20.55;11.88;;;;;;;;;;2088693;28;20532;-54
2023/12/03 00:26:19;;;;;;;24.30;12.82;;;;;;;;;;2089460;28;20501;-54
2023/12/03 00:27:21;;;;;;;21.77;12.45;;;;;;;;;;2090330;28;20374;-54
2023/12/03 00:28:21;;;;;;;26.63;12.32;;;;;;;;;;2089995;28;20036;-54
2023/12/03 00:29:22;;;;;;;20.70;11.63;;;;;;;;;;2089629;28;20041;-54
2023/12/03 00:30:23;;;;;;;23.33;12.05;;;;;;;;;;2090102;28;20040;-54
2023/12/03 00:31:23;;;;;;;19.98;12.18;;;;;;;;;;2090042;28;20072;-54
2023/12/03 00:32:24;;;;;;;22.45;11.95;;;;;;;;;;2090307;28;20033;-54
2023/12/03 00:33:25;;;;;;;19.70;12.60;;;;;;;;;;2089986;28;20025;-54
2023/12/03 00:34:25;;;;;;;21.45;12.15;;;;;;;;;;2090073;28;20481;-54
2023/12/03 00:35:26;;;;;;;20.17;11.73;;;;;;;;;;2090416;28;20045;-54
2023/12/03 00:36:27;;;;;;;20.25;12.10;;;;;;;;;;2089948;28;20048;-54
2023/12/03 00:37:28;;;;;;;21.63;12.60;;;;;;;;;;2090115;28;20029;-54
2023/12/03 00:38:28;;;;;;;20.83;12.15;;;;;;;;;;2089930;28;20098;-54
2023/12/03 00:39:29;;;;;;;20.77;12.30;;;;;;;;;;2089428;28;20167;-54
2023/12/03 00:40:30;;;;;;;20.40;11.80;;;;;;;;;;2090256;28;20025;-54
2023/12/03 00:41:31;;;;;;;21.83;12.82;;;;;;;;;;2089688;28;20052;-54
2023/12/03 00:42:31;;;;;;;22.15;11.88;;;;;;;;;;2089614;28;20025;-54
2023/12/03 00:43:32;;;;;;;22.10;12.55;;;;;;;;;;2090091;28;20052;-54
2023/12/03 00:44:33;;;;;;;22.55;13.32;;;;;;;;;;2090004;28;20393;-54
2023/12/03 00:45:33;;;;;;;21.10;12.60;;;;;;;;;;2089979;28;20060;-54
2023/12/03 00:46:34;;;;;;;21.35;13.18;;;;;;;;;;2089975;28;20037;-54
2023/12/03 00:47:35;;;;;;;23.63;13.23;;;;;;;;;;2089747;28;20036;-54
2023/12/03 00:48:35;;;;;;;20.50;11.63;;;;;;;;;;2089862;28;20037;-54
2023/12/03 00:49:36;;;;;;;23.92;13.77;;;;;;;;;;2091122;28;20041;-54
2023/12/03 00:50:37;;;;;;;20.95;13.43;;;;;;;;;;2091571;28;20126;-54
2023/12/03 00:51:38;;;;;;;23.42;13.35;;;;;;;;;;2091578;28;20464;-54
2023/12/03 00:52:38;;;;;;;24.35;13.73;;;;;;;;;;2091878;28;20032;-54
2023/12/03 00:53:39;;;;;;;25.63;12.95;;;;;;;;;;2091443;28;20029;-54
2023/12/03 00:54:40;;;;;;;24.20;13.40;;;;;;;;;;2091421;28;20032;-55
2023/12/03 00:55:41;;;;;;;23.52;13.75;;;;;;;;;;2091828;28;20477;-54
2023/12/03 00:56:41;;;;;;;27.35;12.98;;;;;;;;;;2091513;28;20124;-54
2023/12/03 00:57:42;;;;;;;21.77;13.57;;;;;;;;;;2091477;28;20044;-54
2023/12/03 00:58:43;;;;;;;23.08;13.07;;;;;;;;;;2091406;28;20029;-54
2023/12/03 00:59:44;;;;;;;24.75;13.43;;;;;;;;;;2091444;28;20072;-54
2023/12/03 01:00:44;;;;;;;27.48;12.77;;;;;;;;;;2091284;28;20072;-54
2023/12/03 01:01:45;;;;;;;22.25;13.48;;;;;;;;;;2090946;28;20056;-54
2023/12/03 01:02:46;;;;;;;23.70;13.77;;;;;;;;;;2091427;28;20053;-54
2023/12/03 01:03:46;;;;;;;26.02;13.95;;;;;;;;;;2091573;28;20044;-54
2023/12/03 01:04:47;;;;;;;26.13;13.82;;;;;;;;;;2091149;28;20432;-54
2023/12/03 01:05:48;;;;;;;27.13;15.20;;;;;;;;;;2091461;28;20045;-53
2023/12/03 01:06:49;;;;;;;25.98;14.02;;;;;;;;;;2091380;28;20036;-54
2023/12/03 01:07:49;;;;;;;23.75;13.27;;;;;;;;;;2091650;28;20048;-54
2023/12/03 01:08:50;;;;;;;22.95;13.00;;;;;;;;;;2091723;28;20450;-54
2023/12/03 01:09:51;;;;;;;25.95;13.98;;;;;;;;;;2091345;28;20048;-54
2023/12/03 01:10:51;;;;;;;24.20;13.70;;;;;;;;;;2091256;28;20013;-54
2023/12/03 01:11:55;;;;;;;25.23;14.63;;;;;;;;;;2091206;28;20041;-54
2023/12/03 01:12:56;;;;;;;24.20;13.35;;;;;;;;;;2091140;28;20392;-54
2023/12/03 01:13:57;;;;;;;25.40;14.55;;;;;;;;;;2091335;28;20052;-54
2023/12/03 01:14:58;;;;;;;24.50;13.63;;;;;;;;;;2091471;28;20055;-54
2023/12/03 01:15:58;;;;;;;24.65;13.35;;;;;;;;;;2091124;28;20029;-53
2023/12/03 01:16:59;;;;;;;35.97;14.23;;;;;;;;;;2091444;28;20078;-54
2023/12/03 01:18:00;;;;;;;24.38;13.77;;;;;;;;;;2091553;28;20032;-54
2023/12/03 01:19:00;;;;;;;25.20;13.45;;;;;;;;;;2090301;28;20044;-54
2023/12/03 01:20:01;;;;;;;24.17;12.32;;;;;;;;;;2090714;28;20037;-54
2023/12/03 01:21:02;;;;;;;22.45;12.52;;;;;;;;;;2091255;28;20442;-54
2023/12/03 01:22:03;;;;;;;22.10;12.93;;;;;;;;;;2091200;28;20071;-54
2023/12/03 01:23:03;;;;;;;23.55;12.60;;;;;;;;;;2091397;28;20060;-54
2023/12/03 01:24:04;;;;;;;21.48;12.45;;;;;;;;;;2091163;28;20021;-54
2023/12/03 01:25:05;;;;;;;22.42;12.50;;;;;;;;;;2091198;28;20045;-54
2023/12/03 01:26:06;;;;;;;23.75;11.85;;;;;;;;;;2091220;28;20040;-54
2023/12/03 01:27:07;;;;;;;22.92;13.43;;;;;;;;;;2091371;28;20047;-54
2023/12/03 01:28:08;;;;;;;24.35;13.80;;;;;;;;;;2091400;28;20389;-54
2023/12/03 01:29:08;;;;;;;23.63;12.68;;;;;;;;;;2091428;28;20040;-54
2023/12/03 01:30:09;;;;;;;25.98;13.65;;;;;;;;;;2091375;28;20021;-54
2023/12/03 01:31:10;;;;;;;21.80;13.18;;;;;;;;;;2091408;28;20033;-54
2023/12/03 01:32:11;;;;;;;22.52;11.82;;;;;;;;;;2091369;28;20036;-54
2023/12/03 01:33:12;;;;;;;22.50;12.00;;;;;;;;;;2091227;28;20041;-54
2023/12/03 01:34:13;;;;;;;24.80;13.30;;;;;;;;;;2091150;28;20033;-54
2023/12/03 01:35:14;;;;;;;23.05;12.98;;;;;;;;;;2091311;28;20036;-54
2023/12/03 01:36:14;;;;;;;22.15;11.93;;;;;;;;;;2091401;28;20041;-54
2023/12/03 01:37:15;;;;;;;23.85;13.00;;;;;;;;;;2091506;28;20041;-54
2023/12/03 01:38:16;;;;;;;23.42;12.52;;;;;;;;;;2091305;28;20029;-54
2023/12/03 01:39:16;;;;;;;25.17;13.00;;;;;;;;;;2090496;28;20053;-54
2023/12/03 01:40:17;;;;;;;23.08;12.13;;;;;;;;;;2091072;28;20053;-54
2023/12/03 01:41:18;;;;;;;22.27;12.63;;;;;;;;;;2091459;28;20056;-54
2023/12/03 01:42:19;;;;;;;25.70;13.52;;;;;;;;;;2091146;28;20404;-54
2023/12/03 01:43:20;;;;;;;26.65;12.85;;;;;;;;;;2091556;28;20025;-54
2023/12/03 01:44:21;;;;;;;24.80;13.52;;;;;;;;;;2091347;28;20069;-54
2023/12/03 01:45:21;;;;;;;23.00;12.93;;;;;;;;;;2090718;28;20045;-54
2023/12/03 01:46:22;;;;;;;24.40;12.98;;;;;;;;;;2090648;28;20087;-54
2023/12/03 01:47:23;;;;;;;23.75;13.27;;;;;;;;;;2091092;28;20108;-54
2023/12/03 01:48:25;;;;;;;24.52;14.45;;;;;;;;;;2090664;28;20048;-54
2023/12/03 01:49:26;;;;;;;23.08;13.32;;;;;;;;;;2091018;28;20032;-54
2023/12/03 01:50:27;;;;;;;24.92;14.13;;;;;;;;;;2091325;28;20072;-54
2023/12/03 01:51:28;;;;;;;26.15;14.38;;;;;;;;;;2090706;28;20037;-54
2023/12/03 01:52:28;;;;;;;26.88;14.68;;;;;;;;;;2090345;28;20063;-54
2023/12/03 01:53:29;;;;;;;39.55;15.77;;;;;;;;;;2090980;28;20056;-54
2023/12/03 01:54:33;;;;;;;27.10;15.10;;;;;;;;;;2090972;28;20040;-53
2023/12/03 01:55:33;;;;;;;24.63;14.10;;;;;;;;;;2089927;28;20037;-54
2023/12/03 01:56:34;;;;;;;28.55;14.05;;;;;;;;;;2098693;28;20048;-54
2023/12/03 01:57:35;;;;;;;27.45;14.07;;;;;;;;;;2106645;28;20099;-54
2023/12/03 01:58:36;;;;;;;23.40;13.23;;;;;;;;;;2090882;28;20037;-53
2023/12/03 01:59:36;;;;;;;24.13;13.45;;;;;;;;;;2091378;28;20061;-54
2023/12/03 02:00:37;;;;;;;23.40;13.30;;;;;;;;;;2089846;28;20195;-54
2023/12/03 02:01:44;;;;;;;25.30;13.77;;;;;;;;;;2090917;28;20052;-54
2023/12/03 02:02:44;;;;;;;25.65;13.57;;;;;;;;;;2090880;28;20496;-54
2023/12/03 02:03:45;;;;;;;26.77;14.95;;;;;;;;;;2091054;28;20041;-54
2023/12/03 02:04:46;;;;;;;26.38;14.20;;;;;;;;;;2090899;28;20068;-54
2023/12/03 02:06:04;;;;;;;23.13;12.20;;;;;;;;;;2091112;28;20024;-53
2023/12/03 02:07:04;;;;;;;25.17;12.95;;;;;;;;;;2090813;28;20032;-54
2023/12/03 02:08:05;;;;;;;23.17;13.20;;;;;;;;;;2091061;28;20105;-54
2023/12/03 02:09:07;;;;;;;22.58;12.63;;;;;;;;;;2090660;28;20024;-54
2023/12/03 02:10:07;;;;;;;25.27;14.13;;;;;;;;;;2090621;28;20389;-54
2023/12/03 02:11:08;;;;;;;26.17;14.45;;;;;;;;;;2090368;28;20045;-54
2023/12/03 02:12:09;;;;;;;26.63;14.07;;;;;;;;;;2090789;28;20080;-54
2023/12/03 02:13:10;;;;;;;24.08;13.57;;;;;;;;;;2090269;28;20043;-54
2023/12/03 02:14:10;;;;;;;26.02;14.07;;;;;;;;;;2090554;28;20029;-54
2023/12/03 02:15:11;;;;;;;24.77;13.23;;;;;;;;;;2091776;28;20448;-53
2023/12/03 02:16:12;;;;;;;25.40;12.93;;;;;;;;;;2090945;28;20571;-54
2023/12/03 02:17:12;;;;;;;26.65;13.88;;;;;;;;;;2091113;28;20037;-54
2023/12/03 02:18:13;;;;;;;27.75;14.27;;;;;;;;;;2090786;28;20048;-54
2023/12/03 02:19:14;;;;;;;30.33;14.75;;;;;;;;;;2090853;28;20028;-54
2023/12/03 02:20:15;;;;;;;25.90;14.38;;;;;;;;;;2091128;28;20103;-53
2023/12/03 02:21:16;;;;;;;27.38;14.20;;;;;;;;;;2090735;28;20486;-55
2023/12/03 02:22:16;;;;;;;26.63;13.93;;;;;;;;;;2090763;28;20123;-54
2023/12/03 02:23:17;;;;;;;25.80;14.00;;;;;;;;;;2090787;28;20041;-54
2023/12/03 02:24:18;;;;;;;25.58;14.35;;;;;;;;;;2091164;28;20124;-54
2023/12/03 02:25:18;;;;;;;31.67;15.18;;;;;;;;;;2091006;28;20111;-54
2023/12/03 02:26:19;;;;;;;26.48;14.25;;;;;;;;;;2091077;28;20045;-54
2023/12/03 02:27:20;;;;;;;23.33;12.93;;;;;;;;;;2090867;28;20044;-54
2023/12/03 02:28:21;;;;;;;30.70;14.90;;;;;;;;;;2090655;28;20029;-54
2023/12/03 02:29:21;;;;;;;24.70;13.70;;;;;;;;;;2090661;28;20051;-54
2023/12/03 02:30:22;;;;;;;24.02;13.57;;;;;;;;;;2090800;28;20469;-54
2023/12/03 02:31:23;;;;;;;26.38;12.60;;;;;;;;;;2090785;28;20139;-54
2023/12/03 02:32:24;;;;;;;26.15;13.85;;;;;;;;;;2090648;28;20029;-54
2023/12/03 02:33:24;;;;;;;27.60;14.43;;;;;;;;;;2090715;28;20040;-54
2023/12/03 02:34:25;;;;;;;25.42;13.15;;;;;;;;;;2090505;28;20041;-54
2023/12/03 02:35:26;;;;;;;23.38;12.32;;;;;;;;;;2090618;28;20033;-54
2023/12/03 02:36:26;;;;;;;22.27;12.07;;;;;;;;;;2091041;28;20040;-54
2023/12/03 02:37:27;;;;;;;23.75;13.30;;;;;;;;;;2090634;28;20374;-54
2023/12/03 02:38:28;;;;;;;21.88;11.85;;;;;;;;;;2090642;28;20563;-54
2023/12/03 02:39:28;;;;;;;23.70;13.07;;;;;;;;;;2090039;28;20484;-54
2023/12/03 02:40:32;;;;;;;24.35;13.40;;;;;;;;;;2090765;28;20036;-54
2023/12/03 02:41:33;;;;;;;23.92;13.88;;;;;;;;;;2090794;28;20397;-54
2023/12/03 02:42:34;;;;;;;22.10;12.57;;;;;;;;;;2090569;28;20033;-54
2023/12/03 02:43:34;;;;;;;24.67;13.52;;;;;;;;;;2090885;28;20040;-54
2023/12/03 02:44:35;;;;;;;26.17;13.68;;;;;;;;;;2091055;28;20049;-55
2023/12/03 02:45:36;;;;;;;25.90;12.65;;;;;;;;;;2090765;28;20048;-54
2023/12/03 02:46:37;;;;;;;26.15;14.15;;;;;;;;;;2090801;28;20028;-54
2023/12/03 02:47:37;;;;;;;27.02;14.80;;;;;;;;;;2090546;28;20389;-54
2023/12/03 02:48:38;;;;;;;29.55;13.18;;;;;;;;;;2089905;28;20021;-55
2023/12/03 02:49:39;;;;;;;23.92;13.93;;;;;;;;;;2090442;28;20036;-54
2023/12/03 02:50:39;;;;;;;22.50;13.40;;;;;;;;;;2090456;28;20020;-55
2023/12/03 02:51:40;;;;;;;25.30;12.70;;;;;;;;;;2090492;28;20063;-54
2023/12/03 02:52:41;;;;;;;25.55;13.20;;;;;;;;;;2090515;28;20060;-53
2023/12/03 02:53:42;;;;;;;23.45;13.00;;;;;;;;;;2090658;28;20045;-54
2023/12/03 02:54:43;;;;;;;22.80;11.43;;;;;;;;;;2090130;28;20044;-54
2023/12/03 02:55:44;;;;;;;22.52;13.38;;;;;;;;;;2090150;28;20051;-54
2023/12/03 02:56:45;;;;;;;21.42;12.13;;;;;;;;;;2090710;28;20036;-54
2023/12/03 02:57:46;;;;;;;25.42;12.95;;;;;;;;;;2090489;28;20068;-54
2023/12/03 02:58:47;;;;;;;23.20;11.90;;;;;;;;;;2090735;28;20072;-54
2023/12/03 02:59:47;;;;;;;25.63;12.57;;;;;;;;;;2090732;28;20040;-54
2023/12/03 03:00:48;;;;;;;24.30;13.23;;;;;;;;;;2090382;28;20064;-54
2023/12/03 03:01:49;;;;;;;20.85;12.65;;;;;;;;;;2090211;28;20052;-53
2023/12/03 03:02:49;;;;;;;24.40;13.82;;;;;;;;;;2090406;28;20036;-55
2023/12/03 03:03:50;;;;;;;24.50;13.95;;;;;;;;;;2090303;28;20033;-54
2023/12/03 03:04:51;;;;;;;25.55;13.90;;;;;;;;;;2090378;28;20056;-54
2023/12/03 03:05:52;;;;;;;24.00;13.55;;;;;;;;;;2090395;28;20420;-54
2023/12/03 03:06:52;;;;;;;49.40;14.38;;;;;;;;;;2090417;28;20045;-54
2023/12/03 03:07:53;;;;;;;22.83;12.95;;;;;;;;;;2090664;28;20032;-54
2023/12/03 03:08:54;;;;;;;22.65;13.23;;;;;;;;;;2090450;28;20036;-54
2023/12/03 03:09:55;;;;;;;23.20;13.43;;;;;;;;;;2090645;28;20036;-54
2023/12/03 03:10:56;;;;;;;24.40;13.68;;;;;;;;;;2090615;28;20045;-54
2023/12/03 03:11:57;;;;;;;25.95;13.65;;;;;;;;;;2089823;28;20048;-54
2023/12/03 03:12:58;;;;;;;27.38;14.02;;;;;;;;;;2090723;28;20025;-54
2023/12/03 03:13:58;;;;;;;25.42;13.88;;;;;;;;;;2090460;28;20029;-54
2023/12/03 03:14:59;;;;;;;26.83;12.77;;;;;;;;;;2090330;28;20400;-54
2023/12/03 03:16:00;;;;;;;23.73;13.43;;;;;;;;;;2090762;28;20461;-54
2023/12/03 03:17:00;;;;;;;26.17;14.00;;;;;;;;;;2090277;28;20033;-53
2023/12/03 03:18:01;;;;;;;23.33;12.13;;;;;;;;;;2090108;28;20079;-54
2023/12/03 03:19:04;;;;;;;26.42;14.35;;;;;;;;;;2090525;28;20044;-54
2023/12/03 03:20:05;;;;;;;25.50;14.30;;;;;;;;;;2090310;28;20409;-54
2023/12/03 03:21:06;;;;;;;25.77;15.40;;;;;;;;;;2090507;28;20040;-54
2023/12/03 03:22:06;;;;;;;25.13;13.27;;;;;;;;;;2090407;28;20040;-54
2023/12/03 03:23:07;;;;;;;26.15;13.27;;;;;;;;;;2090135;28;20051;-54
2023/12/03 03:24:08;;;;;;;26.27;14.02;;;;;;;;;;2090282;28;20040;-54
2023/12/03 03:25:08;;;;;;;26.25;13.80;;;;;;;;;;2090517;28;20043;-54
2023/12/03 03:26:09;;;;;;;27.73;13.77;;;;;;;;;;2090574;28;20076;-54
2023/12/03 03:27:10;;;;;;;24.83;14.07;;;;;;;;;;2090169;28;20374;-54
2023/12/03 03:28:11;;;;;;;25.08;13.52;;;;;;;;;;2090276;28;20512;-54
2023/12/03 03:29:12;;;;;;;23.27;13.18;;;;;;;;;;2090528;28;20025;-54
2023/12/03 03:30:12;;;;;;;22.92;12.88;;;;;;;;;;2090204;28;20473;-55
2023/12/03 03:31:13;;;;;;;26.02;13.85;;;;;;;;;;2090307;28;20029;-55
2023/12/03 03:32:14;;;;;;;23.83;13.60;;;;;;;;;;2090221;28;20116;-54
2023/12/03 03:33:15;;;;;;;22.85;12.93;;;;;;;;;;2090149;28;20048;-54
2023/12/03 03:34:15;;;;;;;24.33;13.20;;;;;;;;;;2090219;28;20041;-54
2023/12/03 03:35:16;;;;;;;26.33;13.77;;;;;;;;;;2090447;28;20032;-53
2023/12/03 03:36:17;;;;;;;28.20;14.48;;;;;;;;;;2090237;28;20037;-54
2023/12/03 03:37:18;;;;;;;24.33;12.90;;;;;;;;;;2090294;28;20067;-54
2023/12/03 03:38:18;;;;;;;26.23;13.75;;;;;;;;;;2090180;28;20044;-54
2023/12/03 03:39:19;;;;;;;28.70;15.15;;;;;;;;;;2089273;28;20057;-54
2023/12/03 03:40:20;;;;;;;24.42;13.85;;;;;;;;;;2089747;28;20421;-54
2023/12/03 03:41:20;;;;;;;24.80;14.02;;;;;;;;;;2089323;28;20045;-54
2023/12/03 03:42:21;;;;;;;26.85;14.95;;;;;;;;;;2090098;28;20050;-54
2023/12/03 03:43:22;;;;;;;27.20;13.95;;;;;;;;;;2090402;28;20037;-54
2023/12/03 03:44:23;;;;;;;25.40;14.25;;;;;;;;;;2090219;28;20076;-54
2023/12/03 03:45:23;;;;;;;25.33;13.43;;;;;;;;;;2090125;28;20052;-54
2023/12/03 03:46:24;;;;;;;27.95;15.25;;;;;;;;;;2090187;28;20037;-54
2023/12/03 03:47:25;;;;;;;24.23;14.40;;;;;;;;;;2090249;28;20384;-54
2023/12/03 03:48:26;;;;;;;22.95;13.52;;;;;;;;;;2090205;28;20473;-54
2023/12/03 03:49:26;;;;;;;34.85;15.00;;;;;;;;;;2090184;28;20174;-54
2023/12/03 03:50:27;;;;;;;24.83;13.65;;;;;;;;;;2090485;28;20033;-54
2023/12/03 03:51:28;;;;;;;24.17;13.45;;;;;;;;;;2090219;28;20048;-53
2023/12/03 03:52:28;;;;;;;25.33;13.40;;;;;;;;;;2090320;28;20048;-54
2023/12/03 03:53:29;;;;;;;27.48;14.82;;;;;;;;;;2089352;28;20049;-54
2023/12/03 03:54:30;;;;;;;27.38;13.32;;;;;;;;;;2089565;28;20040;-54
2023/12/03 03:55:31;;;;;;;26.23;13.70;;;;;;;;;;2090560;28;20045;-54
2023/12/03 03:56:32;;;;;;;24.52;13.18;;;;;;;;;;2090407;28;20048;-54
2023/12/03 03:57:32;;;;;;;27.65;14.43;;;;;;;;;;2090137;28;20029;-54
2023/12/03 03:58:33;;;;;;;23.38;13.65;;;;;;;;;;2090063;28;20037;-53
2023/12/03 03:59:34;;;;;;;25.63;13.35;;;;;;;;;;2090084;28;20040;-54
2023/12/03 04:00:35;;;;;;;25.98;14.95;;;;;;;;;;2090419;28;20365;-54
2023/12/03 04:01:40;;;;;;;24.15;13.18;;;;;;;;;;2089957;28;20045;-54
2023/12/03 04:02:41;;;;;;;27.00;14.55;;;;;;;;;;2090855;28;20045;-53
2023/12/03 04:03:42;;;;;;;27.85;14.60;;;;;;;;;;2090295;28;20029;-54
2023/12/03 04:04:43;;;;;;;25.60;14.60;;;;;;;;;;2090482;28;20112;-54
2023/12/03 04:05:43;;;;;;;27.58;15.15;;;;;;;;;;2089138;28;20045;-54
2023/12/03 04:06:44;;;;;;;25.05;12.82;;;;;;;;;;2089667;28;20040;-54
2023/12/03 04:07:45;;;;;;;25.83;13.90;;;;;;;;;;2090408;28;20041;-54
2023/12/03 04:08:46;;;;;;;27.58;15.27;;;;;;;;;;2090357;28;20044;-53
2023/12/03 04:09:46;;;;;;;24.75;14.20;;;;;;;;;;2090253;28;20052;-54
2023/12/03 04:10:47;;;;;;;25.95;14.68;;;;;;;;;;2090375;28;20036;-53
2023/12/03 04:11:48;;;;;;;24.50;14.15;;;;;;;;;;2090567;28;20389;-54
2023/12/03 04:12:49;;;;;;;24.40;13.75;;;;;;;;;;2090263;28;20064;-54
2023/12/03 04:13:49;;;;;;;28.10;14.68;;;;;;;;;;2090024;28;20037;-54
2023/12/03 04:14:50;;;;;;;24.92;13.40;;;;;;;;;;2090073;28;20033;-54
2023/12/03 04:15:51;;;;;;;26.38;13.75;;;;;;;;;;2090070;28;20036;-54
2023/12/03 04:16:52;;;;;;;28.30;14.85;;;;;;;;;;2090028;28;20037;-55
2023/12/03 04:17:52;;;;;;;28.45;13.32;;;;;;;;;;2089711;28;20124;-54
2023/12/03 04:18:53;;;;;;;28.13;14.85;;;;;;;;;;2090042;28;20040;-54
2023/12/03 04:19:54;;;;;;;25.92;14.38;;;;;;;;;;2089770;28;20041;-53
2023/12/03 04:20:55;;;;;;;25.70;14.30;;;;;;;;;;2090022;28;20056;-53
2023/12/03 04:21:55;;;;;;;26.60;15.13;;;;;;;;;;2090276;28;20032;-54
2023/12/03 04:22:56;;;;;;;25.02;14.00;;;;;;;;;;2089648;28;20036;-54
2023/12/03 04:23:57;;;;;;;28.52;15.70;;;;;;;;;;2081717;28;20432;-54
2023/12/03 04:24:58;;;;;;;29.58;14.80;;;;;;;;;;2082799;28;20045;-54
2023/12/03 04:25:58;;;;;;;59.10;18.05;;;;;;;;;;2091813;28;20534;-54
2023/12/03 04:26:59;;;;;;;27.90;15.15;;;;;;;;;;2091191;28;20036;-54
2023/12/03 04:28:01;;;;;;;29.95;14.70;;;;;;;;;;2091615;28;20044;-55
2023/12/03 04:29:02;;;;;;;29.48;16.63;;;;;;;;;;2091650;28;20473;-54
2023/12/03 04:30:03;;;;;;;29.20;15.90;;;;;;;;;;2091512;28;20109;-54
2023/12/03 04:31:04;;;;;;;28.30;15.07;;;;;;;;;;2091630;28;20508;-54
2023/12/03 04:32:05;;;;;;;26.30;14.75;;;;;;;;;;2091806;28;20055;-54
2023/12/03 04:33:06;;;;;;;29.55;15.70;;;;;;;;;;2091264;28;20059;-54
2023/12/03 04:34:07;;;;;;;28.05;14.57;;;;;;;;;;2091915;28;20488;-54
2023/12/03 04:35:08;;;;;;;32.33;15.27;;;;;;;;;;2091779;28;20033;-54
2023/12/03 04:36:09;;;;;;;27.52;14.65;;;;;;;;;;2091672;28;20033;-54
2023/12/03 04:37:10;;;;;;;30.77;15.90;;;;;;;;;;2091619;28;20139;-54
2023/12/03 04:38:11;;;;;;;27.33;14.30;;;;;;;;;;2091819;28;20108;-54
2023/12/03 04:39:12;;;;;;;29.52;15.90;;;;;;;;;;2091043;28;20131;-54
2023/12/03 04:40:12;;;;;;;29.67;16.23;;;;;;;;;;2091311;28;20129;-54
2023/12/03 04:41:13;;;;;;;27.27;15.55;;;;;;;;;;2091861;28;20048;-54
2023/12/03 04:42:14;;;;;;;33.65;17.10;;;;;;;;;;2091782;28;20033;-54
2023/12/03 04:43:14;;;;;;;30.83;16.48;;;;;;;;;;2091583;28;20076;-54
2023/12/03 04:44:15;;;;;;;29.05;15.35;;;;;;;;;;2091735;28;20366;-54
2023/12/03 04:45:16;;;;;;;31.77;15.68;;;;;;;;;;2091570;28;20072;-55
2023/12/03 04:46:17;;;;;;;28.60;15.73;;;;;;;;;;2091420;28;20499;-54
2023/12/03 04:47:17;;;;;;;27.40;14.18;;;;;;;;;;2091449;28;20040;-54
2023/12/03 04:48:18;;;;;;;27.77;15.20;;;;;;;;;;2091461;28;20033;-54
2023/12/03 04:49:19;;;;;;;30.48;16.08;;;;;;;;;;2091700;28;20037;-54
2023/12/03 04:50:19;;;;;;;56.50;19.10;;;;;;;;;;2091384;28;20045;-54
2023/12/03 04:51:20;;;;;;;28.80;15.82;;;;;;;;;;2091491;28;20056;-54
2023/12/03 04:52:21;;;;;;;27.77;15.82;;;;;;;;;;2091399;28;20024;-54
2023/12/03 04:53:22;;;;;;;28.17;14.57;;;;;;;;;;2091618;28;20477;-54
2023/12/03 04:54:22;;;;;;;27.33;15.10;;;;;;;;;;2091479;28;20048;-54
2023/12/03 04:55:23;;;;;;;27.25;15.85;;;;;;;;;;2091768;28;20021;-54
2023/12/03 04:56:24;;;;;;;27.77;15.63;;;;;;;;;;2091504;28;20048;-54
2023/12/03 04:57:24;;;;;;;29.95;16.42;;;;;;;;;;2091239;28;20053;-54
2023/12/03 04:58:25;;;;;;;27.70;16.45;;;;;;;;;;2090917;28;20104;-54
2023/12/03 04:59:26;;;;;;;29.83;16.10;;;;;;;;;;2091317;28;20036;-54
2023/12/03 05:00:27;;;;;;;30.05;16.45;;;;;;;;;;2091260;28;20041;-54
2023/12/03 05:01:28;;;;;;;27.98;14.95;;;;;;;;;;2090912;28;20064;-55
2023/12/03 05:02:28;;;;;;;30.95;16.80;;;;;;;;;;2091688;28;20036;-54
2023/12/03 05:03:29;;;;;;;27.05;15.52;;;;;;;;;;2091228;28;20441;-54
2023/12/03 05:04:30;;;;;;;30.17;15.75;;;;;;;;;;2091668;28;20071;-54
2023/12/03 05:05:31;;;;;;;53.80;17.15;;;;;;;;;;2091316;28;20116;-54
2023/12/03 05:06:31;;;;;;;36.78;15.68;;;;;;;;;;2091473;28;20396;-54
2023/12/03 05:07:32;;;;;;;31.50;16.83;;;;;;;;;;2091096;28;20477;-54
2023/12/03 05:08:33;;;;;;;35.70;15.88;;;;;;;;;;2091294;28;20029;-54
2023/12/03 05:09:33;;;;;;;27.80;15.35;;;;;;;;;;2091860;28;20128;-55
2023/12/03 05:10:34;;;;;;;28.80;15.43;;;;;;;;;;2091468;28;20036;-55
2023/12/03 05:11:38;;;;;;;35.75;16.80;;;;;;;;;;2091603;28;20029;-53
2023/12/03 05:12:39;;;;;;;29.73;15.60;;;;;;;;;;2091291;28;20393;-54
2023/12/03 05:13:40;;;;;;;30.48;16.10;;;;;;;;;;2090929;28;20049;-54
2023/12/03 05:14:41;;;;;;;29.23;14.90;;;;;;;;;;2091278;28;20045;-54
2023/12/03 05:15:42;;;;;;;31.63;17.00;;;;;;;;;;2091272;28;20056;-54
2023/12/03 05:16:42;;;;;;;32.33;16.20;;;;;;;;;;2091262;28;20040;-54
2023/12/03 05:17:43;;;;;;;29.23;15.23;;;;;;;;;;2091295;28;20420;-54
2023/12/03 05:18:44;;;;;;;31.70;16.83;;;;;;;;;;2090933;28;20049;-54
2023/12/03 05:19:45;;;;;;;29.67;16.38;;;;;;;;;;2091236;28;20040;-54
2023/12/03 05:20:45;;;;;;;30.58;16.63;;;;;;;;;;2091094;28;20131;-54
2023/12/03 05:21:46;;;;;;;33.88;16.48;;;;;;;;;;2091218;28;20029;-54
2023/12/03 05:22:47;;;;;;;33.47;17.02;;;;;;;;;;2091249;28;20116;-54
2023/12/03 05:23:47;;;;;;;29.38;16.05;;;;;;;;;;2091216;28;20036;-54
2023/12/03 05:24:48;;;;;;;30.65;16.58;;;;;;;;;;2091210;28;20044;-54
2023/12/03 05:25:49;;;;;;;32.08;17.30;;;;;;;;;;2091247;28;20037;-54
2023/12/03 05:26:50;;;;;;;30.83;16.45;;;;;;;;;;2091264;28;20392;-54
2023/12/03 05:27:50;;;;;;;32.97;16.48;;;;;;;;;;2091393;28;20465;-54
2023/12/03 05:28:51;;;;;;;30.25;16.10;;;;;;;;;;2091307;28;20040;-54
2023/12/03 05:29:52;;;;;;;32.03;16.17;;;;;;;;;;2091027;28;20412;-54
2023/12/03 05:30:52;;;;;;;30.27;16.30;;;;;;;;;;2091204;28;20477;-55
2023/12/03 05:31:53;;;;;;;42.55;17.55;;;;;;;;;;2090314;28;20045;-54
2023/12/03 05:32:54;;;;;;;31.70;17.20;;;;;;;;;;2090860;28;20037;-54
2023/12/03 05:33:55;;;;;;;30.85;17.55;;;;;;;;;;2090841;28;20056;-54
2023/12/03 05:34:56;;;;;;;31.42;17.35;;;;;;;;;;2091104;28;20044;-54
2023/12/03 05:35:57;;;;;;;31.95;15.35;;;;;;;;;;2090806;28;20048;-54
2023/12/03 05:36:58;;;;;;;31.13;16.90;;;;;;;;;;2090947;28;20464;-54
2023/12/03 05:37:59;;;;;;;32.70;17.08;;;;;;;;;;2091006;28;20041;-54
2023/12/03 05:39:00;;;;;;;34.97;18.45;;;;;;;;;;2091070;28;20052;-54
2023/12/03 05:40:00;;;;;;;34.05;18.73;;;;;;;;;;2089909;28;20064;-54
2023/12/03 05:41:01;;;;;;;33.20;16.92;;;;;;;;;;2090969;28;20498;-55
2023/12/03 05:42:02;;;;;;;34.92;18.00;;;;;;;;;;2091192;28;20384;-54
2023/12/03 05:43:03;;;;;;;34.00;17.77;;;;;;;;;;2090950;28;20465;-54
2023/12/03 05:44:04;;;;;;;31.95;16.42;;;;;;;;;;2091061;28;20021;-54
2023/12/03 05:45:05;;;;;;;74.25;19.20;;;;;;;;;;2091279;28;20029;-54
2023/12/03 05:46:06;;;;;;;32.97;17.50;;;;;;;;;;2090973;28;20049;-54
2023/12/03 05:47:07;;;;;;;37.67;18.60;;;;;;;;;;2091222;28;20037;-54
2023/12/03 05:48:07;;;;;;;39.80;18.30;;;;;;;;;;2091085;28;20076;-54
2023/12/03 05:49:08;;;;;;;32.33;16.75;;;;;;;;;;2091056;28;20029;-54
2023/12/03 05:50:09;;;;;;;36.13;16.23;;;;;;;;;;2091039;28;20072;-54
2023/12/03 05:51:10;;;;;;;32.50;16.48;;;;;;;;;;2091069;28;20033;-54
2023/12/03 05:52:11;;;;;;;33.40;16.95;;;;;;;;;;2090914;28;20052;-54
2023/12/03 05:53:12;;;;;;;35.90;18.55;;;;;;;;;;2090922;28;20021;-54
2023/12/03 05:54:12;;;;;;;34.40;16.83;;;;;;;;;;2090914;28;20021;-54